sensor_id;sensor_type;location;lat;lon;timestamp;P1;durP1;ratioP1;P2;durP2;ratioP2
73456;SDS011;61691;53.072;6.582;2023-03-01T00:01:36;27.42;;;15.05;;
73456;SDS011;61691;53.072;6.582;2023-03-01T00:04:04;24.13;;;13.13;;
73456;SDS011;61691;53.072;6.582;2023-03-01T00:06:30;27.48;;;13.35;;
73456;SDS011;61691;53.072;6.582;2023-03-01T00:08:58;27.15;;;14.07;;
73456;SDS011;61691;53.072;6.582;2023-03-01T00:11:26;24.05;;;13.68;;
73456;SDS011;61691;53.072;6.582;2023-03-01T00:13:58;26.33;;;14.13;;
73456;SDS011;61691;53.072;6.582;2023-03-01T00:16:28;28.85;;;14.88;;
73456;SDS011;61691;53.072;6.582;2023-03-01T00:18:58;30.10;;;15.50;;
73456;SDS011;61691;53.072;6.582;2023-03-01T00:21:25;28.85;;;14.82;;
73456;SDS011;61691;53.072;6.582;2023-03-01T00:23:52;31.50;;;16.73;;
73456;SDS011;61691;53.072;6.582;2023-03-01T00:26:20;28.77;;;15.60;;
73456;SDS011;61691;53.072;6.582;2023-03-01T00:28:48;26.50;;;13.77;;
73456;SDS011;61691;53.072;6.582;2023-03-01T00:31:16;25.98;;;13.35;;
73456;SDS011;61691;53.072;6.582;2023-03-01T00:33:46;26.40;;;14.52;;
73456;SDS011;61691;53.072;6.582;2023-03-01T00:36:13;29.45;;;16.27;;
73456;SDS011;61691;53.072;6.582;2023-03-01T00:38:42;53.38;;;18.58;;
73456;SDS011;61691;53.072;6.582;2023-03-01T00:41:15;93.00;;;21.73;;
73456;SDS011;61691;53.072;6.582;2023-03-01T00:43:43;34.38;;;18.42;;
73456;SDS011;61691;53.072;6.582;2023-03-01T00:46:11;32.60;;;17.65;;
73456;SDS011;61691;53.072;6.582;2023-03-01T00:48:40;34.80;;;17.00;;
73456;SDS011;61691;53.072;6.582;2023-03-01T00:51:08;34.33;;;18.80;;
73456;SDS011;61691;53.072;6.582;2023-03-01T00:53:40;39.05;;;19.25;;
73456;SDS011;61691;53.072;6.582;2023-03-01T00:56:08;53.45;;;20.42;;
73456;SDS011;61691;53.072;6.582;2023-03-01T00:58:36;105.88;;;22.42;;
73456;SDS011;61691;53.072;6.582;2023-03-01T01:03:50;87.50;;;21.65;;
73456;SDS011;61691;53.072;6.582;2023-03-01T01:06:44;88.95;;;21.70;;
73456;SDS011;61691;53.072;6.582;2023-03-01T01:09:11;81.43;;;20.00;;
73456;SDS011;61691;53.072;6.582;2023-03-01T01:11:44;82.10;;;19.40;;
73456;SDS011;61691;53.072;6.582;2023-03-01T01:14:17;84.32;;;19.88;;
73456;SDS011;61691;53.072;6.582;2023-03-01T01:16:44;97.85;;;21.20;;
73456;SDS011;61691;53.072;6.582;2023-03-01T01:19:11;59.92;;;18.65;;
73456;SDS011;61691;53.072;6.582;2023-03-01T01:21:40;51.72;;;17.98;;
73456;SDS011;61691;53.072;6.582;2023-03-01T01:24:09;56.30;;;18.30;;
73456;SDS011;61691;53.072;6.582;2023-03-01T01:26:36;59.97;;;17.85;;
73456;SDS011;61691;53.072;6.582;2023-03-01T01:29:03;34.85;;;16.88;;
73456;SDS011;61691;53.072;6.582;2023-03-01T01:31:31;52.10;;;17.35;;
73456;SDS011;61691;53.072;6.582;2023-03-01T01:34:00;35.85;;;16.88;;
73456;SDS011;61691;53.072;6.582;2023-03-01T01:36:28;30.35;;;16.38;;
73456;SDS011;61691;53.072;6.582;2023-03-01T01:38:56;28.85;;;15.60;;
73456;SDS011;61691;53.072;6.582;2023-03-01T01:41:23;28.50;;;15.82;;
73456;SDS011;61691;53.072;6.582;2023-03-01T01:44:10;31.95;;;16.77;;
73456;SDS011;61691;53.072;6.582;2023-03-01T01:46:44;30.95;;;17.27;;
73456;SDS011;61691;53.072;6.582;2023-03-01T01:52:02;47.03;;;17.58;;
73456;SDS011;61691;53.072;6.582;2023-03-01T01:54:33;45.17;;;17.75;;
73456;SDS011;61691;53.072;6.582;2023-03-01T01:57:08;37.63;;;17.90;;
73456;SDS011;61691;53.072;6.582;2023-03-01T01:59:39;35.38;;;16.42;;
73456;SDS011;61691;53.072;6.582;2023-03-01T02:02:11;61.55;;;18.83;;
73456;SDS011;61691;53.072;6.582;2023-03-01T02:04:39;42.33;;;17.38;;
73456;SDS011;61691;53.072;6.582;2023-03-01T02:07:18;50.58;;;17.38;;
73456;SDS011;61691;53.072;6.582;2023-03-01T02:09:48;58.50;;;17.75;;
73456;SDS011;61691;53.072;6.582;2023-03-01T02:12:19;62.90;;;18.50;;
73456;SDS011;61691;53.072;6.582;2023-03-01T02:14:55;55.25;;;17.50;;
73456;SDS011;61691;53.072;6.582;2023-03-01T02:17:22;50.30;;;17.10;;
73456;SDS011;61691;53.072;6.582;2023-03-01T02:19:56;47.30;;;16.80;;
73456;SDS011;61691;53.072;6.582;2023-03-01T02:22:49;37.08;;;15.90;;
73456;SDS011;61691;53.072;6.582;2023-03-01T02:27:59;45.67;;;16.52;;
73456;SDS011;61691;53.072;6.582;2023-03-01T02:30:39;30.05;;;14.57;;
73456;SDS011;61691;53.072;6.582;2023-03-01T02:33:30;28.13;;;15.20;;
73456;SDS011;61691;53.072;6.582;2023-03-01T02:36:10;29.55;;;15.38;;
73456;SDS011;61691;53.072;6.582;2023-03-01T02:38:42;36.35;;;15.68;;
73456;SDS011;61691;53.072;6.582;2023-03-01T02:41:10;38.50;;;16.20;;
73456;SDS011;61691;53.072;6.582;2023-03-01T02:43:40;28.63;;;15.43;;
73456;SDS011;61691;53.072;6.582;2023-03-01T02:46:20;35.58;;;16.42;;
73456;SDS011;61691;53.072;6.582;2023-03-01T02:48:50;29.38;;;15.63;;
73456;SDS011;61691;53.072;6.582;2023-03-01T02:52:04;31.02;;;16.15;;
73456;SDS011;61691;53.072;6.582;2023-03-01T02:57:02;27.15;;;13.95;;
73456;SDS011;61691;53.072;6.582;2023-03-01T02:59:30;26.90;;;15.23;;
73456;SDS011;61691;53.072;6.582;2023-03-01T03:02:06;29.20;;;15.80;;
73456;SDS011;61691;53.072;6.582;2023-03-01T03:04:34;28.45;;;15.73;;
73456;SDS011;61691;53.072;6.582;2023-03-01T03:07:01;28.85;;;15.63;;
73456;SDS011;61691;53.072;6.582;2023-03-01T03:09:27;31.58;;;17.33;;
73456;SDS011;61691;53.072;6.582;2023-03-01T03:11:54;30.85;;;17.08;;
73456;SDS011;61691;53.072;6.582;2023-03-01T03:14:21;28.50;;;15.48;;
73456;SDS011;61691;53.072;6.582;2023-03-01T03:16:49;31.10;;;16.10;;
73456;SDS011;61691;53.072;6.582;2023-03-01T03:19:17;30.15;;;16.33;;
73456;SDS011;61691;53.072;6.582;2023-03-01T03:21:44;29.40;;;16.02;;
73456;SDS011;61691;53.072;6.582;2023-03-01T03:24:12;26.50;;;14.38;;
73456;SDS011;61691;53.072;6.582;2023-03-01T03:26:39;26.95;;;14.25;;
73456;SDS011;61691;53.072;6.582;2023-03-01T03:29:05;25.70;;;14.13;;
73456;SDS011;61691;53.072;6.582;2023-03-01T03:31:32;27.63;;;14.68;;
73456;SDS011;61691;53.072;6.582;2023-03-01T03:34:00;27.15;;;15.30;;
73456;SDS011;61691;53.072;6.582;2023-03-01T03:36:27;24.58;;;13.13;;
73456;SDS011;61691;53.072;6.582;2023-03-01T03:38:53;25.67;;;13.00;;
73456;SDS011;61691;53.072;6.582;2023-03-01T03:41:20;27.77;;;15.48;;
73456;SDS011;61691;53.072;6.582;2023-03-01T03:43:47;27.17;;;14.85;;
73456;SDS011;61691;53.072;6.582;2023-03-01T03:46:15;29.30;;;15.57;;
73456;SDS011;61691;53.072;6.582;2023-03-01T03:48:44;26.40;;;14.43;;
73456;SDS011;61691;53.072;6.582;2023-03-01T03:51:13;28.20;;;14.73;;
73456;SDS011;61691;53.072;6.582;2023-03-01T03:53:41;26.77;;;14.02;;
73456;SDS011;61691;53.072;6.582;2023-03-01T03:56:09;27.15;;;14.95;;
73456;SDS011;61691;53.072;6.582;2023-03-01T03:58:36;26.98;;;14.30;;
73456;SDS011;61691;53.072;6.582;2023-03-01T04:01:03;26.88;;;14.35;;
73456;SDS011;61691;53.072;6.582;2023-03-01T04:03:31;27.45;;;13.95;;
73456;SDS011;61691;53.072;6.582;2023-03-01T04:05:59;29.70;;;14.82;;
73456;SDS011;61691;53.072;6.582;2023-03-01T04:08:26;26.60;;;14.52;;
73456;SDS011;61691;53.072;6.582;2023-03-01T04:11:01;26.83;;;14.10;;
73456;SDS011;61691;53.072;6.582;2023-03-01T04:13:50;25.42;;;13.73;;
73456;SDS011;61691;53.072;6.582;2023-03-01T04:16:18;27.13;;;15.23;;
73456;SDS011;61691;53.072;6.582;2023-03-01T04:18:45;25.67;;;14.27;;
73456;SDS011;61691;53.072;6.582;2023-03-01T04:21:12;27.23;;;14.00;;
73456;SDS011;61691;53.072;6.582;2023-03-01T04:23:39;26.27;;;13.70;;
73456;SDS011;61691;53.072;6.582;2023-03-01T04:26:07;24.98;;;13.07;;
73456;SDS011;61691;53.072;6.582;2023-03-01T04:28:35;27.38;;;14.93;;
73456;SDS011;61691;53.072;6.582;2023-03-01T04:31:10;25.05;;;14.27;;
73456;SDS011;61691;53.072;6.582;2023-03-01T04:33:50;26.67;;;14.10;;
73456;SDS011;61691;53.072;6.582;2023-03-01T04:36:20;25.90;;;14.02;;
73456;SDS011;61691;53.072;6.582;2023-03-01T04:38:49;26.67;;;14.43;;
73456;SDS011;61691;53.072;6.582;2023-03-01T04:41:17;27.58;;;14.90;;
73456;SDS011;61691;53.072;6.582;2023-03-01T04:43:45;27.65;;;15.38;;
73456;SDS011;61691;53.072;6.582;2023-03-01T04:46:13;27.63;;;15.38;;
73456;SDS011;61691;53.072;6.582;2023-03-01T04:48:42;28.27;;;15.15;;
73456;SDS011;61691;53.072;6.582;2023-03-01T04:51:11;28.33;;;15.63;;
73456;SDS011;61691;53.072;6.582;2023-03-01T04:53:41;26.98;;;13.82;;
73456;SDS011;61691;53.072;6.582;2023-03-01T04:56:08;27.83;;;15.00;;
73456;SDS011;61691;53.072;6.582;2023-03-01T04:58:35;26.08;;;14.38;;
73456;SDS011;61691;53.072;6.582;2023-03-01T05:01:07;26.10;;;13.63;;
73456;SDS011;61691;53.072;6.582;2023-03-01T05:03:42;26.35;;;13.82;;
73456;SDS011;61691;53.072;6.582;2023-03-01T05:06:10;25.85;;;13.45;;
73456;SDS011;61691;53.072;6.582;2023-03-01T05:08:40;25.23;;;13.20;;
73456;SDS011;61691;53.072;6.582;2023-03-01T05:11:08;26.23;;;14.48;;
73456;SDS011;61691;53.072;6.582;2023-03-01T05:13:36;28.88;;;14.50;;
73456;SDS011;61691;53.072;6.582;2023-03-01T05:16:04;24.85;;;12.80;;
73456;SDS011;61691;53.072;6.582;2023-03-01T05:18:33;25.20;;;13.32;;
73456;SDS011;61691;53.072;6.582;2023-03-01T05:21:05;25.20;;;13.20;;
73456;SDS011;61691;53.072;6.582;2023-03-01T05:23:34;24.27;;;13.15;;
73456;SDS011;61691;53.072;6.582;2023-03-01T05:26:02;28.33;;;13.05;;
73456;SDS011;61691;53.072;6.582;2023-03-01T05:28:33;25.08;;;12.65;;
73456;SDS011;61691;53.072;6.582;2023-03-01T05:30:59;25.02;;;13.48;;
73456;SDS011;61691;53.072;6.582;2023-03-01T05:33:27;24.75;;;12.85;;
73456;SDS011;61691;53.072;6.582;2023-03-01T05:35:54;24.95;;;13.48;;
73456;SDS011;61691;53.072;6.582;2023-03-01T05:38:21;24.30;;;12.55;;
73456;SDS011;61691;53.072;6.582;2023-03-01T05:40:48;23.85;;;12.43;;
73456;SDS011;61691;53.072;6.582;2023-03-01T05:43:16;22.05;;;10.90;;
73456;SDS011;61691;53.072;6.582;2023-03-01T05:45:43;22.48;;;11.02;;
73456;SDS011;61691;53.072;6.582;2023-03-01T05:48:11;21.95;;;10.88;;
73456;SDS011;61691;53.072;6.582;2023-03-01T05:50:42;21.40;;;10.38;;
73456;SDS011;61691;53.072;6.582;2023-03-01T05:53:15;21.70;;;11.00;;
73456;SDS011;61691;53.072;6.582;2023-03-01T05:55:43;20.48;;;9.77;;
73456;SDS011;61691;53.072;6.582;2023-03-01T05:58:11;20.27;;;9.45;;
73456;SDS011;61691;53.072;6.582;2023-03-01T06:00:40;19.45;;;8.68;;
73456;SDS011;61691;53.072;6.582;2023-03-01T06:03:09;19.45;;;8.70;;
73456;SDS011;61691;53.072;6.582;2023-03-01T06:05:38;19.73;;;9.02;;
73456;SDS011;61691;53.072;6.582;2023-03-01T06:08:06;19.50;;;9.07;;
73456;SDS011;61691;53.072;6.582;2023-03-01T06:10:33;19.27;;;8.55;;
73456;SDS011;61691;53.072;6.582;2023-03-01T06:13:00;19.38;;;8.80;;
73456;SDS011;61691;53.072;6.582;2023-03-01T06:15:27;18.08;;;7.90;;
73456;SDS011;61691;53.072;6.582;2023-03-01T06:17:55;19.42;;;8.68;;
73456;SDS011;61691;53.072;6.582;2023-03-01T06:20:27;18.40;;;7.75;;
73456;SDS011;61691;53.072;6.582;2023-03-01T06:22:55;19.67;;;8.88;;
73456;SDS011;61691;53.072;6.582;2023-03-01T06:25:22;19.90;;;9.45;;
73456;SDS011;61691;53.072;6.582;2023-03-01T06:27:51;19.92;;;9.35;;
73456;SDS011;61691;53.072;6.582;2023-03-01T06:30:21;19.17;;;9.57;;
73456;SDS011;61691;53.072;6.582;2023-03-01T06:32:49;21.13;;;9.65;;
73456;SDS011;61691;53.072;6.582;2023-03-01T06:35:16;20.77;;;10.00;;
73456;SDS011;61691;53.072;6.582;2023-03-01T06:37:45;19.55;;;9.43;;
73456;SDS011;61691;53.072;6.582;2023-03-01T06:40:14;19.77;;;9.15;;
73456;SDS011;61691;53.072;6.582;2023-03-01T06:42:42;20.10;;;9.38;;
73456;SDS011;61691;53.072;6.582;2023-03-01T06:45:13;19.85;;;9.60;;
73456;SDS011;61691;53.072;6.582;2023-03-01T06:47:40;20.35;;;9.75;;
73456;SDS011;61691;53.072;6.582;2023-03-01T06:50:07;20.40;;;9.85;;
73456;SDS011;61691;53.072;6.582;2023-03-01T06:52:35;20.10;;;9.10;;
73456;SDS011;61691;53.072;6.582;2023-03-01T06:55:02;20.27;;;9.95;;
73456;SDS011;61691;53.072;6.582;2023-03-01T06:57:29;20.27;;;9.70;;
73456;SDS011;61691;53.072;6.582;2023-03-01T06:59:56;19.15;;;9.05;;
73456;SDS011;61691;53.072;6.582;2023-03-01T07:02:23;21.02;;;10.55;;
73456;SDS011;61691;53.072;6.582;2023-03-01T07:04:51;22.02;;;10.68;;
73456;SDS011;61691;53.072;6.582;2023-03-01T07:07:18;22.05;;;11.18;;
73456;SDS011;61691;53.072;6.582;2023-03-01T07:09:45;20.75;;;10.60;;
73456;SDS011;61691;53.072;6.582;2023-03-01T07:12:12;20.60;;;9.82;;
73456;SDS011;61691;53.072;6.582;2023-03-01T07:14:39;20.85;;;10.38;;
73456;SDS011;61691;53.072;6.582;2023-03-01T07:17:07;21.05;;;10.45;;
73456;SDS011;61691;53.072;6.582;2023-03-01T07:19:34;20.60;;;10.52;;
73456;SDS011;61691;53.072;6.582;2023-03-01T07:22:00;20.33;;;10.05;;
73456;SDS011;61691;53.072;6.582;2023-03-01T07:24:27;21.23;;;10.75;;
73456;SDS011;61691;53.072;6.582;2023-03-01T07:26:54;20.75;;;10.25;;
73456;SDS011;61691;53.072;6.582;2023-03-01T07:29:21;21.15;;;10.55;;
73456;SDS011;61691;53.072;6.582;2023-03-01T07:31:48;21.05;;;11.18;;
73456;SDS011;61691;53.072;6.582;2023-03-01T07:34:15;24.13;;;11.10;;
73456;SDS011;61691;53.072;6.582;2023-03-01T07:36:42;21.02;;;10.60;;
73456;SDS011;61691;53.072;6.582;2023-03-01T07:39:11;20.77;;;9.75;;
73456;SDS011;61691;53.072;6.582;2023-03-01T07:41:37;20.50;;;9.80;;
73456;SDS011;61691;53.072;6.582;2023-03-01T07:44:05;21.67;;;9.80;;
73456;SDS011;61691;53.072;6.582;2023-03-01T07:46:32;21.58;;;10.60;;
73456;SDS011;61691;53.072;6.582;2023-03-01T07:48:59;20.85;;;10.48;;
73456;SDS011;61691;53.072;6.582;2023-03-01T07:51:26;22.40;;;10.57;;
73456;SDS011;61691;53.072;6.582;2023-03-01T07:53:53;21.50;;;10.55;;
73456;SDS011;61691;53.072;6.582;2023-03-01T07:56:20;21.60;;;10.85;;
73456;SDS011;61691;53.072;6.582;2023-03-01T07:58:48;22.58;;;11.73;;
73456;SDS011;61691;53.072;6.582;2023-03-01T08:01:18;25.35;;;15.25;;
73456;SDS011;61691;53.072;6.582;2023-03-01T08:03:46;23.15;;;12.90;;
73456;SDS011;61691;53.072;6.582;2023-03-01T08:06:14;23.58;;;12.90;;
73456;SDS011;61691;53.072;6.582;2023-03-01T08:08:42;24.08;;;12.65;;
73456;SDS011;61691;53.072;6.582;2023-03-01T08:11:12;22.35;;;11.95;;
73456;SDS011;61691;53.072;6.582;2023-03-01T08:13:41;23.88;;;12.55;;
73456;SDS011;61691;53.072;6.582;2023-03-01T08:16:13;26.65;;;14.45;;
73456;SDS011;61691;53.072;6.582;2023-03-01T08:18:41;26.92;;;14.80;;
73456;SDS011;61691;53.072;6.582;2023-03-01T08:21:14;27.70;;;15.30;;
73456;SDS011;61691;53.072;6.582;2023-03-01T08:23:43;30.38;;;17.10;;
73456;SDS011;61691;53.072;6.582;2023-03-01T08:26:11;34.15;;;17.42;;
73456;SDS011;61691;53.072;6.582;2023-03-01T08:28:40;32.58;;;18.65;;
73456;SDS011;61691;53.072;6.582;2023-03-01T08:31:15;32.50;;;17.75;;
73456;SDS011;61691;53.072;6.582;2023-03-01T08:33:45;32.55;;;18.13;;
73456;SDS011;61691;53.072;6.582;2023-03-01T08:36:17;32.35;;;18.10;;
73456;SDS011;61691;53.072;6.582;2023-03-01T08:38:44;30.75;;;18.17;;
73456;SDS011;61691;53.072;6.582;2023-03-01T08:41:12;31.88;;;17.88;;
73456;SDS011;61691;53.072;6.582;2023-03-01T08:43:39;31.58;;;18.27;;
73456;SDS011;61691;53.072;6.582;2023-03-01T08:46:05;32.95;;;19.08;;
73456;SDS011;61691;53.072;6.582;2023-03-01T08:48:32;34.10;;;18.05;;
73456;SDS011;61691;53.072;6.582;2023-03-01T08:51:16;31.45;;;18.65;;
73456;SDS011;61691;53.072;6.582;2023-03-01T08:53:46;30.52;;;18.55;;
73456;SDS011;61691;53.072;6.582;2023-03-01T08:56:14;31.08;;;17.98;;
73456;SDS011;61691;53.072;6.582;2023-03-01T08:58:45;32.55;;;17.90;;
73456;SDS011;61691;53.072;6.582;2023-03-01T09:01:15;32.72;;;19.42;;
73456;SDS011;61691;53.072;6.582;2023-03-01T09:03:43;34.67;;;18.95;;
73456;SDS011;61691;53.072;6.582;2023-03-01T09:06:11;36.25;;;19.58;;
73456;SDS011;61691;53.072;6.582;2023-03-01T09:08:39;34.30;;;20.00;;
73456;SDS011;61691;53.072;6.582;2023-03-01T09:11:07;33.03;;;19.52;;
73456;SDS011;61691;53.072;6.582;2023-03-01T09:13:35;35.60;;;20.23;;
73456;SDS011;61691;53.072;6.582;2023-03-01T09:16:03;36.08;;;19.98;;
73456;SDS011;61691;53.072;6.582;2023-03-01T09:18:33;36.10;;;20.08;;
73456;SDS011;61691;53.072;6.582;2023-03-01T09:21:08;35.33;;;20.23;;
73456;SDS011;61691;53.072;6.582;2023-03-01T09:23:45;38.75;;;20.65;;
73456;SDS011;61691;53.072;6.582;2023-03-01T09:26:15;35.40;;;20.42;;
73456;SDS011;61691;53.072;6.582;2023-03-01T09:28:46;35.08;;;20.58;;
73456;SDS011;61691;53.072;6.582;2023-03-01T09:31:13;35.72;;;20.20;;
73456;SDS011;61691;53.072;6.582;2023-03-01T09:33:45;35.90;;;21.33;;
73456;SDS011;61691;53.072;6.582;2023-03-01T09:36:15;35.03;;;20.58;;
73456;SDS011;61691;53.072;6.582;2023-03-01T09:38:44;36.10;;;18.35;;
73456;SDS011;61691;53.072;6.582;2023-03-01T09:43:45;34.35;;;19.83;;
73456;SDS011;61691;53.072;6.582;2023-03-01T09:46:22;34.42;;;18.42;;
73456;SDS011;61691;53.072;6.582;2023-03-01T09:48:57;31.15;;;18.73;;
73456;SDS011;61691;53.072;6.582;2023-03-01T09:51:31;32.10;;;18.25;;
73456;SDS011;61691;53.072;6.582;2023-03-01T09:54:04;29.23;;;16.45;;
73456;SDS011;61691;53.072;6.582;2023-03-01T09:56:32;30.80;;;17.90;;
73456;SDS011;61691;53.072;6.582;2023-03-01T09:59:19;32.42;;;18.58;;
73456;SDS011;61691;53.072;6.582;2023-03-01T10:05:05;32.13;;;18.20;;
73456;SDS011;61691;53.072;6.582;2023-03-01T10:07:17;31.88;;;17.92;;
73456;SDS011;61691;53.072;6.582;2023-03-01T10:09:46;30.65;;;16.80;;
73456;SDS011;61691;53.072;6.582;2023-03-01T10:12:25;32.42;;;17.15;;
73456;SDS011;61691;53.072;6.582;2023-03-01T10:15:14;29.25;;;16.17;;
73456;SDS011;61691;53.072;6.582;2023-03-01T10:17:57;33.20;;;17.35;;
73456;SDS011;61691;53.072;6.582;2023-03-01T10:20:36;30.85;;;16.20;;
73456;SDS011;61691;53.072;6.582;2023-03-01T10:23:04;32.55;;;17.13;;
73456;SDS011;61691;53.072;6.582;2023-03-01T10:25:47;28.92;;;15.38;;
73456;SDS011;61691;53.072;6.582;2023-03-01T10:28:16;30.25;;;15.02;;
73456;SDS011;61691;53.072;6.582;2023-03-01T10:30:44;26.63;;;14.27;;
73456;SDS011;61691;53.072;6.582;2023-03-01T10:33:18;28.17;;;15.70;;
73456;SDS011;61691;53.072;6.582;2023-03-01T10:35:48;29.25;;;14.80;;
73456;SDS011;61691;53.072;6.582;2023-03-01T10:38:15;27.98;;;15.02;;
73456;SDS011;61691;53.072;6.582;2023-03-01T10:40:51;31.92;;;16.10;;
73456;SDS011;61691;53.072;6.582;2023-03-01T10:44:09;32.83;;;17.30;;
73456;SDS011;61691;53.072;6.582;2023-03-01T10:51:49;33.17;;;20.23;;
73456;SDS011;61691;53.072;6.582;2023-03-01T10:56:56;24.83;;;12.63;;
73456;SDS011;61691;53.072;6.582;2023-03-01T10:59:28;22.33;;;10.93;;
73456;SDS011;61691;53.072;6.582;2023-03-01T11:04:57;24.45;;;11.48;;
73456;SDS011;61691;53.072;6.582;2023-03-01T11:07:24;22.38;;;11.07;;
73456;SDS011;61691;53.072;6.582;2023-03-01T11:09:51;25.55;;;12.55;;
73456;SDS011;61691;53.072;6.582;2023-03-01T11:12:18;27.52;;;12.57;;
73456;SDS011;61691;53.072;6.582;2023-03-01T11:14:50;25.08;;;13.00;;
73456;SDS011;61691;53.072;6.582;2023-03-01T11:17:24;25.60;;;12.63;;
73456;SDS011;61691;53.072;6.582;2023-03-01T11:20:02;24.92;;;12.85;;
73456;SDS011;61691;53.072;6.582;2023-03-01T11:22:44;23.75;;;12.80;;
73456;SDS011;61691;53.072;6.582;2023-03-01T11:25:26;23.88;;;12.88;;
73456;SDS011;61691;53.072;6.582;2023-03-01T11:27:58;25.05;;;12.95;;
73456;SDS011;61691;53.072;6.582;2023-03-01T11:33:10;24.92;;;12.25;;
73456;SDS011;61691;53.072;6.582;2023-03-01T11:36:31;26.08;;;13.73;;
73456;SDS011;61691;53.072;6.582;2023-03-01T11:38:49;24.45;;;12.35;;
73456;SDS011;61691;53.072;6.582;2023-03-01T11:41:20;24.60;;;11.73;;
73456;SDS011;61691;53.072;6.582;2023-03-01T11:43:58;22.40;;;10.90;;
73456;SDS011;61691;53.072;6.582;2023-03-01T11:54:50;22.70;;;11.77;;
73456;SDS011;61691;53.072;6.582;2023-03-01T12:14:23;24.80;;;11.10;;
73456;SDS011;61691;53.072;6.582;2023-03-01T12:17:02;23.48;;;10.82;;
73456;SDS011;61691;53.072;6.582;2023-03-01T12:22:28;23.25;;;11.55;;
73456;SDS011;61691;53.072;6.582;2023-03-01T12:42:01;24.00;;;11.95;;
73456;SDS011;61691;53.072;6.582;2023-03-01T12:47:11;22.45;;;11.57;;
73456;SDS011;61691;53.072;6.582;2023-03-01T12:49:48;23.35;;;11.20;;
73456;SDS011;61691;53.072;6.582;2023-03-01T12:52:40;25.30;;;12.20;;
73456;SDS011;61691;53.072;6.582;2023-03-01T12:55:27;21.90;;;11.10;;
73456;SDS011;61691;53.072;6.582;2023-03-01T13:00:30;22.80;;;11.20;;
73456;SDS011;61691;53.072;6.582;2023-03-01T13:08:20;23.05;;;11.90;;
73456;SDS011;61691;53.072;6.582;2023-03-01T13:11:06;24.95;;;11.90;;
73456;SDS011;61691;53.072;6.582;2023-03-01T13:13:42;22.67;;;11.70;;
73456;SDS011;61691;53.072;6.582;2023-03-01T13:16:38;25.15;;;12.55;;
73456;SDS011;61691;53.072;6.582;2023-03-01T13:19:13;25.50;;;12.98;;
73456;SDS011;61691;53.072;6.582;2023-03-01T13:21:45;25.05;;;12.60;;
73456;SDS011;61691;53.072;6.582;2023-03-01T13:24:26;26.45;;;12.93;;
73456;SDS011;61691;53.072;6.582;2023-03-01T13:30:12;24.65;;;13.25;;
73456;SDS011;61691;53.072;6.582;2023-03-01T13:32:33;26.98;;;13.73;;
73456;SDS011;61691;53.072;6.582;2023-03-01T13:37:37;26.27;;;14.65;;
73456;SDS011;61691;53.072;6.582;2023-03-01T13:40:08;24.20;;;13.15;;
73456;SDS011;61691;53.072;6.582;2023-03-01T13:42:52;26.30;;;15.00;;
73456;SDS011;61691;53.072;6.582;2023-03-01T13:45:36;25.80;;;15.07;;
73456;SDS011;61691;53.072;6.582;2023-03-01T13:48:11;25.23;;;14.45;;
73456;SDS011;61691;53.072;6.582;2023-03-01T13:50:46;26.13;;;13.75;;
73456;SDS011;61691;53.072;6.582;2023-03-01T13:53:18;26.65;;;13.80;;
73456;SDS011;61691;53.072;6.582;2023-03-01T13:55:51;25.15;;;13.90;;
73456;SDS011;61691;53.072;6.582;2023-03-01T13:58:26;25.48;;;14.13;;
73456;SDS011;61691;53.072;6.582;2023-03-01T14:00:56;24.98;;;14.55;;
73456;SDS011;61691;53.072;6.582;2023-03-01T14:03:25;26.40;;;15.38;;
73456;SDS011;61691;53.072;6.582;2023-03-01T14:08:43;23.98;;;13.38;;
73456;SDS011;61691;53.072;6.582;2023-03-01T14:14:21;25.80;;;13.65;;
73456;SDS011;61691;53.072;6.582;2023-03-01T14:17:13;25.73;;;14.10;;
73456;SDS011;61691;53.072;6.582;2023-03-01T14:19:42;26.25;;;14.65;;
73456;SDS011;61691;53.072;6.582;2023-03-01T14:22:24;25.33;;;13.18;;
73456;SDS011;61691;53.072;6.582;2023-03-01T14:25:01;23.65;;;12.95;;
73456;SDS011;61691;53.072;6.582;2023-03-01T14:27:36;26.20;;;13.98;;
73456;SDS011;61691;53.072;6.582;2023-03-01T14:30:26;23.85;;;13.25;;
73456;SDS011;61691;53.072;6.582;2023-03-01T14:32:58;25.58;;;13.30;;
73456;SDS011;61691;53.072;6.582;2023-03-01T14:35:28;24.90;;;13.98;;
73456;SDS011;61691;53.072;6.582;2023-03-01T14:37:56;27.15;;;14.48;;
73456;SDS011;61691;53.072;6.582;2023-03-01T14:40:28;26.50;;;14.45;;
73456;SDS011;61691;53.072;6.582;2023-03-01T14:42:58;25.48;;;14.48;;
73456;SDS011;61691;53.072;6.582;2023-03-01T14:45:28;26.58;;;14.15;;
73456;SDS011;61691;53.072;6.582;2023-03-01T14:47:58;27.15;;;14.80;;
73456;SDS011;61691;53.072;6.582;2023-03-01T14:50:29;28.75;;;15.63;;
73456;SDS011;61691;53.072;6.582;2023-03-01T14:53:02;27.17;;;15.95;;
73456;SDS011;61691;53.072;6.582;2023-03-01T14:55:41;28.55;;;15.80;;
73456;SDS011;61691;53.072;6.582;2023-03-01T14:58:14;28.58;;;16.00;;
73456;SDS011;61691;53.072;6.582;2023-03-01T15:00:56;25.30;;;13.45;;
73456;SDS011;61691;53.072;6.582;2023-03-01T15:03:27;28.80;;;15.37;;
73456;SDS011;61691;53.072;6.582;2023-03-01T15:06:01;28.92;;;14.82;;
73456;SDS011;61691;53.072;6.582;2023-03-01T15:08:28;27.23;;;14.68;;
73456;SDS011;61691;53.072;6.582;2023-03-01T15:11:01;27.65;;;15.32;;
73456;SDS011;61691;53.072;6.582;2023-03-01T15:13:29;25.50;;;14.82;;
73456;SDS011;61691;53.072;6.582;2023-03-01T15:16:02;26.20;;;14.43;;
73456;SDS011;61691;53.072;6.582;2023-03-01T15:18:33;28.20;;;16.00;;
73456;SDS011;61691;53.072;6.582;2023-03-01T15:21:22;26.67;;;14.90;;
73456;SDS011;61691;53.072;6.582;2023-03-01T15:24:25;26.73;;;14.48;;
73456;SDS011;61691;53.072;6.582;2023-03-01T15:26:56;28.08;;;14.23;;
73456;SDS011;61691;53.072;6.582;2023-03-01T15:29:28;27.92;;;14.65;;
73456;SDS011;61691;53.072;6.582;2023-03-01T15:32:21;27.63;;;14.63;;
73456;SDS011;61691;53.072;6.582;2023-03-01T15:34:59;26.10;;;14.10;;
73456;SDS011;61691;53.072;6.582;2023-03-01T15:37:48;27.20;;;15.63;;
73456;SDS011;61691;53.072;6.582;2023-03-01T15:40:22;26.25;;;14.57;;
73456;SDS011;61691;53.072;6.582;2023-03-01T15:43:01;26.38;;;12.98;;
73456;SDS011;61691;53.072;6.582;2023-03-01T15:45:33;25.98;;;13.93;;
73456;SDS011;61691;53.072;6.582;2023-03-01T15:48:00;26.60;;;14.07;;
73456;SDS011;61691;53.072;6.582;2023-03-01T15:50:34;27.60;;;14.32;;
73456;SDS011;61691;53.072;6.582;2023-03-01T15:53:07;26.73;;;15.85;;
73456;SDS011;61691;53.072;6.582;2023-03-01T15:55:37;25.35;;;14.20;;
73456;SDS011;61691;53.072;6.582;2023-03-01T15:58:14;26.48;;;14.57;;
73456;SDS011;61691;53.072;6.582;2023-03-01T16:00:44;26.65;;;14.55;;
73456;SDS011;61691;53.072;6.582;2023-03-01T16:03:26;26.90;;;15.30;;
73456;SDS011;61691;53.072;6.582;2023-03-01T16:05:53;27.60;;;15.23;;
73456;SDS011;61691;53.072;6.582;2023-03-01T16:08:20;27.33;;;15.20;;
73456;SDS011;61691;53.072;6.582;2023-03-01T16:10:47;25.23;;;14.27;;
73456;SDS011;61691;53.072;6.582;2023-03-01T16:13:16;27.05;;;15.30;;
73456;SDS011;61691;53.072;6.582;2023-03-01T16:15:44;26.60;;;15.25;;
73456;SDS011;61691;53.072;6.582;2023-03-01T16:18:10;27.58;;;14.35;;
73456;SDS011;61691;53.072;6.582;2023-03-01T16:20:38;27.35;;;14.68;;
73456;SDS011;61691;53.072;6.582;2023-03-01T16:23:07;26.70;;;14.40;;
73456;SDS011;61691;53.072;6.582;2023-03-01T16:25:36;27.63;;;14.57;;